Time;durP1;ratioP1;P1;durP2;ratioP2;P2;SDS_P1;SDS_P2;PMS_P1;PMS_P2;Temp;Humidity;BMP_temperature;BMP_pressure;BME280_temperature;BME280_humidity;BME280_pressure;Samples;Min_cycle;Max_cycle;Signal;HPM_P1;HPM_P2
2023/01/22 00:01:07;;;;;;;;;;;0.80;99.90;;;;;;5065841;28;19916;-77
2023/01/22 00:03:33;;;;;;;;;;;0.80;99.90;;;;;;5067986;28;20311;-75
2023/01/22 00:05:59;;;;;;;;;;;0.90;99.90;;;;;;5068212;28;19912;-76
2023/01/22 00:08:24;;;;;;;;;;;1.00;99.90;;;;;;5070493;28;19915;-76
2023/01/22 00:10:51;;;;;;;;;;;1.10;99.90;;;;;;5075060;28;19930;-76
2023/01/22 00:13:17;;;;;;;;;;;1.20;99.90;;;;;;5073814;28;19958;-77
2023/01/22 00:15:42;;;;;;;;;;;1.30;99.90;;;;;;5074122;28;19911;-76
2023/01/22 00:18:08;;;;;;;;;;;1.30;99.90;;;;;;5074021;28;19908;-76
2023/01/22 00:20:33;;;;;;;;;;;1.30;99.90;;;;;;5073973;28;19924;-76
2023/01/22 00:22:59;;;;;;;;;;;1.30;99.90;;;;;;5074313;28;20200;-77
2023/01/22 00:25:24;;;;;;;;;;;1.30;99.90;;;;;;5067029;28;19915;-77
2023/01/22 00:27:50;;;;;;;;;;;1.20;99.90;;;;;;5074751;28;19908;-78
2023/01/22 00:30:15;;;;;;;;;;;1.30;99.90;;;;;;5075085;28;19909;-78
2023/01/22 00:32:41;;;;;;;;;;;1.40;99.90;;;;;;5069628;28;19912;-76
2023/01/22 00:35:07;;;;;;;;;;;1.40;99.90;;;;;;5073133;28;20008;-76
2023/01/22 00:37:32;;;;;;;;;;;1.50;99.90;;;;;;5073581;28;20193;-77
2023/01/22 00:39:58;;;;;;;;;;;1.50;99.90;;;;;;5070119;28;19904;-77
2023/01/22 00:42:24;;;;;;;;;;;1.50;99.90;;;;;;5075153;28;20010;-77
2023/01/22 00:44:50;;;;;;;;;;;1.60;99.90;;;;;;5075033;28;20355;-76
2023/01/22 00:47:15;;;;;;;;;;;1.60;99.90;;;;;;5071734;28;19908;-76
2023/01/22 00:49:41;;;;;;;;;;;1.60;99.90;;;;;;5059371;28;20200;-76
2023/01/22 00:52:06;;;;;;;;;;;1.70;99.90;;;;;;5065955;28;20292;-76
2023/01/22 00:54:32;;;;;;;;;;;1.70;99.90;;;;;;5069186;28;20007;-76
2023/01/22 00:56:58;;;;;;;;;;;1.90;99.90;;;;;;5068632;28;19908;-77
2023/01/22 00:59:23;;;;;;;;;;;2.00;99.90;;;;;;5071715;28;20312;-75
2023/01/22 01:01:49;;;;;;;;;;;2.00;99.90;;;;;;5069908;28;19973;-76
2023/01/22 01:04:14;;;;;;;;;;;2.00;99.90;;;;;;5073598;28;19934;-76
2023/01/22 01:06:40;;;;;;;;;;;2.00;99.90;;;;;;5069332;28;20054;-77
2023/01/22 01:09:05;;;;;;;;;;;2.00;99.90;;;;;;5068936;28;19908;-76
2023/01/22 01:11:31;;;;;;;;;;;2.10;99.90;;;;;;5072358;28;20207;-77
2023/01/22 01:13:56;;;;;;;;;;;2.10;99.90;;;;;;5073435;28;20254;-76
2023/01/22 01:16:28;;;;;;;;;;;2.10;99.90;;;;;;5072062;28;19915;-76
2023/01/22 01:19:01;;;;;;;;;;;2.10;99.90;;;;;;5074346;28;19908;-76
2023/01/22 01:21:26;;;;;;;;;;;2.10;99.90;;;;;;5075180;28;19912;-76
2023/01/22 01:23:53;;;;;;;;;;;2.10;99.90;;;;;;5074330;28;19991;-75
2023/01/22 01:26:18;;;;;;;;;;;2.10;99.90;;;;;;5072509;28;19904;-76
2023/01/22 01:28:44;;;;;;;;;;;2.20;99.90;;;;;;5073146;28;20267;-77
2023/01/22 01:31:11;;;;;;;;;;;2.20;99.90;;;;;;5074793;28;19991;-76
2023/01/22 01:33:37;;;;;;;;;;;2.10;99.90;;;;;;5075141;28;20263;-76
2023/01/22 01:36:04;;;;;;;;;;;2.20;99.90;;;;;;5073660;28;19951;-76
2023/01/22 01:38:30;;;;;;;;;;;2.20;99.90;;;;;;5074140;28;19908;-76
2023/01/22 01:40:56;;;;;;;;;;;2.20;99.90;;;;;;5072282;28;19945;-76
2023/01/22 01:43:22;;;;;;;;;;;2.20;99.90;;;;;;5074266;28;19940;-75
2023/01/22 01:45:47;;;;;;;;;;;2.30;99.90;;;;;;5072711;28;19908;-76
2023/01/22 01:48:21;;;;;;;;;;;2.30;99.90;;;;;;5069190;28;20008;-76
2023/01/22 01:50:50;;;;;;;;;;;2.30;99.90;;;;;;5074617;28;19915;-76
2023/01/22 01:53:16;;;;;;;;;;;2.30;99.90;;;;;;5073048;28;20313;-75
2023/01/22 01:55:42;;;;;;;;;;;2.30;99.90;;;;;;5073931;28;19908;-75
2023/01/22 01:58:10;;;;;;;;;;;2.30;99.90;;;;;;5072658;28;20015;-75
2023/01/22 02:00:36;;;;;;;;;;;2.20;99.90;;;;;;5073096;28;19916;-76
2023/01/22 02:03:02;;;;;;;;;;;2.20;99.90;;;;;;5074720;28;19905;-75
2023/01/22 02:05:31;;;;;;;;;;;2.10;99.90;;;;;;5073792;28;20295;-76
2023/01/22 02:07:56;;;;;;;;;;;2.20;99.90;;;;;;5077879;28;19908;-76
2023/01/22 02:10:22;;;;;;;;;;;2.20;99.90;;;;;;5066023;28;20295;-76
2023/01/22 02:12:47;;;;;;;;;;;2.20;99.90;;;;;;5078170;28;19915;-76
2023/01/22 02:15:13;;;;;;;;;;;2.20;99.90;;;;;;5076063;28;20378;-77
2023/01/22 02:17:39;;;;;;;;;;;2.20;99.90;;;;;;5078212;28;20213;-75
2023/01/22 02:20:05;;;;;;;;;;;2.30;99.90;;;;;;5076084;28;19978;-75
2023/01/22 02:22:32;;;;;;;;;;;2.30;99.90;;;;;;5076403;28;19909;-75
2023/01/22 02:24:57;;;;;;;;;;;2.30;99.90;;;;;;5076686;28;20286;-75
2023/01/22 02:27:23;;;;;;;;;;;2.40;99.90;;;;;;5077483;28;19940;-75
2023/01/22 02:29:49;;;;;;;;;;;2.40;99.90;;;;;;5076463;28;19953;-76
2023/01/22 02:32:14;;;;;;;;;;;2.40;99.90;;;;;;5077559;28;19912;-76
2023/01/22 02:34:40;;;;;;;;;;;2.50;99.90;;;;;;5077708;28;19994;-76
2023/01/22 02:37:06;;;;;;;;;;;2.50;99.90;;;;;;5076228;28;20123;-75
2023/01/22 02:39:32;;;;;;;;;;;2.40;99.90;;;;;;5062998;28;19951;-75
2023/01/22 02:41:57;;;;;;;;;;;2.40;99.90;;;;;;5078091;28;19908;-76
2023/01/22 02:44:23;;;;;;;;;;;2.40;99.90;;;;;;5076895;28;19958;-76
2023/01/22 02:46:48;;;;;;;;;;;2.40;99.90;;;;;;5073251;28;19916;-76
2023/01/22 02:49:14;;;;;;;;;;;2.40;99.90;;;;;;5072366;28;19920;-75
2023/01/22 02:51:39;;;;;;;;;;;2.40;99.90;;;;;;5076867;28;19911;-75
2023/01/22 02:54:05;;;;;;;;;;;2.40;99.90;;;;;;5077696;28;19908;-74
2023/01/22 02:56:32;;;;;;;;;;;2.40;99.90;;;;;;5061281;28;20291;-76
2023/01/22 02:58:58;;;;;;;;;;;2.40;99.90;;;;;;5073320;28;20447;-76
2023/01/22 03:01:24;;;;;;;;;;;2.40;99.90;;;;;;5076965;28;19921;-75
2023/01/22 03:03:51;;;;;;;;;;;2.40;99.90;;;;;;5077273;28;19904;-76
2023/01/22 03:06:20;;;;;;;;;;;2.40;99.90;;;;;;5075858;28;20343;-76
2023/01/22 03:08:51;;;;;;;;;;;2.40;99.90;;;;;;5073932;28;19913;-75
2023/01/22 03:11:17;;;;;;;;;;;2.40;99.90;;;;;;5075981;28;19908;-77
2023/01/22 03:21:55;;;;;;;;;;;2.30;99.90;;;;;;5076441;28;19919;-76
2023/01/22 03:24:21;;;;;;;;;;;2.30;99.90;;;;;;5075369;28;19904;-76
2023/01/22 03:26:46;;;;;;;;;;;2.30;99.90;;;;;;5076134;28;19909;-76
2023/01/22 03:29:12;;;;;;;;;;;2.30;99.90;;;;;;5074500;28;19913;-76
2023/01/22 03:31:37;;;;;;;;;;;2.30;99.90;;;;;;5075641;28;19915;-76
2023/01/22 03:34:03;;;;;;;;;;;2.20;99.90;;;;;;5075355;28;19990;-76
2023/01/22 03:36:29;;;;;;;;;;;2.30;99.90;;;;;;5074807;28;19912;-75
2023/01/22 03:38:54;;;;;;;;;;;2.20;99.90;;;;;;5076143;28;20255;-75
2023/01/22 03:41:20;;;;;;;;;;;2.20;99.90;;;;;;5073182;28;20366;-76
2023/01/22 03:43:45;;;;;;;;;;;2.10;99.90;;;;;;5074989;28;19908;-76
2023/01/22 03:46:12;;;;;;;;;;;2.10;99.90;;;;;;5075165;28;19908;-76
2023/01/22 03:48:38;;;;;;;;;;;2.10;99.90;;;;;;5075780;28;19908;-76
2023/01/22 03:51:08;;;;;;;;;;;2.00;99.90;;;;;;5074140;28;19936;-75
2023/01/22 03:53:33;;;;;;;;;;;2.00;99.90;;;;;;5075501;28;19912;-76
2023/01/22 03:56:00;;;;;;;;;;;2.00;99.90;;;;;;5071938;28;20219;-76
2023/01/22 03:58:27;;;;;;;;;;;1.90;99.90;;;;;;5064292;28;19954;-77
2023/01/22 04:00:56;;;;;;;;;;;1.80;99.90;;;;;;5069566;28;19916;-76
2023/01/22 04:03:23;;;;;;;;;;;1.80;99.90;;;;;;5073651;28;20223;-77
2023/01/22 04:05:48;;;;;;;;;;;1.70;99.90;;;;;;5075020;28;19918;-77
2023/01/22 04:08:14;;;;;;;;;;;1.70;99.90;;;;;;5075555;28;20285;-76
2023/01/22 04:10:41;;;;;;;;;;;1.70;99.90;;;;;;5074585;28;19919;-76
2023/01/22 04:13:06;;;;;;;;;;;1.60;99.90;;;;;;5075944;28;19957;-76
2023/01/22 04:15:32;;;;;;;;;;;1.50;99.90;;;;;;5075232;28;19986;-77
2023/01/22 04:17:57;;;;;;;;;;;1.50;99.90;;;;;;5070883;28;19916;-77
2023/01/22 04:20:23;;;;;;;;;;;1.40;99.90;;;;;;5071971;28;19917;-76
2023/01/22 04:22:48;;;;;;;;;;;1.40;99.90;;;;;;5075904;28;19909;-77
2023/01/22 04:25:14;;;;;;;;;;;1.40;99.90;;;;;;5074884;28;19934;-76
2023/01/22 04:27:39;;;;;;;;;;;1.30;99.90;;;;;;5075758;28;19912;-76
2023/01/22 04:30:05;;;;;;;;;;;1.30;99.90;;;;;;5069793;28;19909;-78
2023/01/22 04:32:31;;;;;;;;;;;1.20;99.90;;;;;;5067630;28;19904;-78
2023/01/22 04:34:57;;;;;;;;;;;1.10;99.90;;;;;;5067729;28;20351;-77
2023/01/22 04:37:22;;;;;;;;;;;1.10;99.90;;;;;;5061050;28;19916;-77
2023/01/22 04:39:48;;;;;;;;;;;1.00;99.90;;;;;;5065243;28;19915;-77
2023/01/22 04:42:13;;;;;;;;;;;1.00;99.90;;;;;;5067214;28;19921;-78
2023/01/22 04:44:39;;;;;;;;;;;0.90;99.90;;;;;;5072410;28;19912;-77
2023/01/22 04:47:04;;;;;;;;;;;0.90;99.90;;;;;;5063358;28;19999;-77
2023/01/22 04:49:30;;;;;;;;;;;1.00;99.90;;;;;;5068759;28;19908;-78
2023/01/22 04:51:55;;;;;;;;;;;1.00;99.90;;;;;;5073099;28;20188;-77
2023/01/22 04:54:21;;;;;;;;;;;1.00;99.90;;;;;;5074755;28;20207;-77
2023/01/22 04:56:46;;;;;;;;;;;1.00;99.90;;;;;;5072987;28;19912;-76
2023/01/22 04:59:12;;;;;;;;;;;1.10;99.90;;;;;;5056859;28;20057;-77
2023/01/22 05:01:37;;;;;;;;;;;1.10;99.90;;;;;;5072895;28;19921;-76
2023/01/22 05:04:04;;;;;;;;;;;1.00;99.90;;;;;;5064124;28;19924;-77
2023/01/22 05:06:30;;;;;;;;;;;1.00;99.90;;;;;;5071949;28;20295;-78
2023/01/22 05:08:56;;;;;;;;;;;1.10;99.90;;;;;;5075067;28;19958;-77
2023/01/22 05:11:21;;;;;;;;;;;1.10;99.90;;;;;;5074946;28;19905;-78
2023/01/22 05:13:47;;;;;;;;;;;1.10;99.90;;;;;;5073107;28;19955;-77
2023/01/22 05:16:12;;;;;;;;;;;1.20;99.90;;;;;;5073852;28;19908;-78
2023/01/22 05:18:38;;;;;;;;;;;1.20;99.90;;;;;;5074836;28;19904;-78
2023/01/22 05:21:03;;;;;;;;;;;1.20;99.90;;;;;;5074702;28;20381;-78
2023/01/22 05:23:29;;;;;;;;;;;1.20;99.90;;;;;;5074484;28;20218;-77
2023/01/22 05:25:54;;;;;;;;;;;1.20;99.90;;;;;;5073404;28;19916;-77
2023/01/22 05:28:20;;;;;;;;;;;1.20;99.90;;;;;;5075057;28;19904;-78
2023/01/22 05:30:46;;;;;;;;;;;1.20;99.90;;;;;;5073115;28;19984;-76
2023/01/22 05:33:12;;;;;;;;;;;1.20;99.90;;;;;;5075075;28;19912;-78
2023/01/22 05:35:37;;;;;;;;;;;1.20;99.90;;;;;;5074363;28;19928;-77
2023/01/22 05:38:03;;;;;;;;;;;1.30;99.90;;;;;;5069251;28;19923;-78
2023/01/22 05:40:28;;;;;;;;;;;1.30;99.90;;;;;;5073031;28;19912;-77
2023/01/22 05:42:54;;;;;;;;;;;1.20;99.90;;;;;;5064201;28;19905;-77
2023/01/22 05:45:20;;;;;;;;;;;1.30;99.90;;;;;;5076174;28;19904;-77
2023/01/22 05:47:50;;;;;;;;;;;1.40;99.90;;;;;;5074707;28;19962;-77
2023/01/22 05:50:15;;;;;;;;;;;1.30;99.90;;;;;;5076119;28;20253;-77
2023/01/22 05:52:41;;;;;;;;;;;1.40;99.90;;;;;;5066803;28;19908;-78
2023/01/22 05:55:07;;;;;;;;;;;1.40;99.90;;;;;;5077829;28;19995;-78
2023/01/22 05:57:34;;;;;;;;;;;1.40;99.90;;;;;;5078168;28;19990;-78
2023/01/22 06:00:00;;;;;;;;;;;1.50;99.90;;;;;;5076243;28;19908;-78
2023/01/22 06:02:25;;;;;;;;;;;1.50;99.90;;;;;;5077212;28;19954;-77
2023/01/22 06:04:51;;;;;;;;;;;1.50;99.90;;;;;;5075283;28;19916;-77
2023/01/22 06:07:16;;;;;;;;;;;1.50;99.90;;;;;;5066877;28;19950;-77
2023/01/22 06:09:42;;;;;;;;;;;1.50;99.90;;;;;;5064841;28;19917;-78
2023/01/22 06:12:07;;;;;;;;;;;1.50;99.90;;;;;;5067433;28;19923;-77
2023/01/22 06:14:33;;;;;;;;;;;1.40;99.90;;;;;;5073063;28;19965;-76
2023/01/22 06:17:00;;;;;;;;;;;1.40;99.90;;;;;;5074395;28;19977;-77
2023/01/22 06:19:26;;;;;;;;;;;1.40;99.90;;;;;;5070178;28;19916;-77
2023/01/22 06:21:51;;;;;;;;;;;1.40;99.90;;;;;;5071406;28;19936;-78
2023/01/22 06:24:17;;;;;;;;;;;1.40;99.90;;;;;;5066963;28;19931;-77
2023/01/22 06:26:42;;;;;;;;;;;1.40;99.90;;;;;;5069266;28;20271;-77
2023/01/22 06:29:08;;;;;;;;;;;1.40;99.90;;;;;;5070584;28;19908;-77
2023/01/22 06:31:33;;;;;;;;;;;1.40;99.90;;;;;;5069710;28;19917;-77
2023/01/22 06:33:59;;;;;;;;;;;1.50;99.90;;;;;;5062929;28;19912;-77
2023/01/22 06:36:24;;;;;;;;;;;1.50;99.90;;;;;;5070904;28;19904;-77
2023/01/22 06:38:50;;;;;;;;;;;1.40;99.90;;;;;;5066621;28;19904;-77
2023/01/22 06:41:16;;;;;;;;;;;1.40;99.90;;;;;;5077823;28;19912;-77
2023/01/22 06:43:41;;;;;;;;;;;1.40;99.90;;;;;;5077366;28;20366;-78
2023/01/22 06:46:07;;;;;;;;;;;1.40;99.90;;;;;;5075553;28;19948;-78
2023/01/22 06:48:32;;;;;;;;;;;1.30;99.90;;;;;;5065941;28;19909;-77
2023/01/22 06:50:58;;;;;;;;;;;1.30;99.90;;;;;;5070825;28;19995;-77
2023/01/22 06:53:24;;;;;;;;;;;1.40;99.90;;;;;;5072860;28;19912;-76
2023/01/22 06:55:50;;;;;;;;;;;1.30;99.90;;;;;;5070738;28;19904;-77
2023/01/22 06:58:16;;;;;;;;;;;1.30;99.90;;;;;;5075045;28;20211;-76
2023/01/22 07:00:41;;;;;;;;;;;1.30;99.90;;;;;;5069063;28;19917;-78
2023/01/22 07:03:07;;;;;;;;;;;1.20;99.90;;;;;;5073582;28;19908;-76
2023/01/22 07:05:33;;;;;;;;;;;1.20;99.90;;;;;;5075265;28;21234;-77
2023/01/22 07:07:59;;;;;;;;;;;1.30;99.90;;;;;;5067047;28;19917;-77
2023/01/22 07:10:25;;;;;;;;;;;1.30;99.90;;;;;;5073807;28;19904;-77
2023/01/22 07:12:54;;;;;;;;;;;1.30;99.90;;;;;;5066825;28;19991;-77
2023/01/22 07:15:21;;;;;;;;;;;1.20;99.90;;;;;;5069842;28;19908;-77
2023/01/22 07:17:51;;;;;;;;;;;1.20;99.90;;;;;;5063353;28;19916;-77
2023/01/22 07:20:17;;;;;;;;;;;1.20;99.90;;;;;;5071561;28;19912;-77
2023/01/22 07:22:42;;;;;;;;;;;1.20;99.90;;;;;;5069624;28;19908;-76
2023/01/22 07:25:08;;;;;;;;;;;1.20;99.90;;;;;;5066179;28;19909;-77
2023/01/22 07:27:34;;;;;;;;;;;1.10;99.90;;;;;;5054105;28;19916;-72
2023/01/22 07:30:00;;;;;;;;;;;1.10;99.90;;;;;;5042113;28;20378;-79
2023/01/22 07:32:25;;;;;;;;;;;1.10;99.90;;;;;;5064527;28;20003;-77
2023/01/22 07:34:51;;;;;;;;;;;1.10;99.90;;;;;;5070808;28;19913;-77
2023/01/22 07:37:16;;;;;;;;;;;1.10;99.90;;;;;;5073046;28;19908;-78
2023/01/22 07:39:42;;;;;;;;;;;1.10;99.90;;;;;;5071383;28;19962;-77
2023/01/22 07:42:08;;;;;;;;;;;1.10;99.90;;;;;;5069135;28;19913;-77
2023/01/22 07:44:35;;;;;;;;;;;1.00;99.90;;;;;;5065595;28;20383;-76
2023/01/22 07:47:01;;;;;;;;;;;1.00;99.90;;;;;;5065940;28;19908;-78
2023/01/22 07:49:26;;;;;;;;;;;1.00;99.90;;;;;;5066362;28;20353;-77
2023/01/22 07:51:52;;;;;;;;;;;1.00;99.90;;;;;;5064774;28;20269;-78
2023/01/22 07:54:19;;;;;;;;;;;0.90;99.90;;;;;;5065840;28;19912;-78
2023/01/22 07:56:44;;;;;;;;;;;0.90;99.90;;;;;;5067532;28;19916;-77
2023/01/22 07:59:10;;;;;;;;;;;0.90;99.90;;;;;;5070220;28;19919;-77
2023/01/22 08:01:35;;;;;;;;;;;0.90;99.90;;;;;;5073718;28;19920;-77
2023/01/22 08:04:01;;;;;;;;;;;0.80;99.90;;;;;;5073945;28;19909;-78
2023/01/22 08:06:26;;;;;;;;;;;0.80;99.90;;;;;;5074277;28;19905;-76
2023/01/22 08:08:52;;;;;;;;;;;0.80;99.90;;;;;;5067541;28;20224;-76
2023/01/22 08:11:17;;;;;;;;;;;0.80;99.90;;;;;;5045595;28;20231;-77
2023/01/22 08:13:43;;;;;;;;;;;0.80;99.90;;;;;;5067192;28;19973;-76
2023/01/22 08:16:09;;;;;;;;;;;0.80;99.90;;;;;;5070728;28;20544;-77
2023/01/22 08:18:35;;;;;;;;;;;0.80;99.90;;;;;;5070450;28;19924;-77
2023/01/22 08:21:00;;;;;;;;;;;0.80;99.90;;;;;;5071037;28;19919;-76
2023/01/22 08:23:26;;;;;;;;;;;0.80;99.90;;;;;;5074719;28;19948;-76
2023/01/22 08:25:52;;;;;;;;;;;0.80;99.90;;;;;;5068284;28;20007;-78
2023/01/22 08:28:17;;;;;;;;;;;0.80;99.90;;;;;;5067508;28;19980;-76
2023/01/22 08:30:43;;;;;;;;;;;0.80;99.90;;;;;;5058345;28;19928;-75
2023/01/22 08:33:09;;;;;;;;;;;0.80;99.90;;;;;;5064723;28;19982;-80
2023/01/22 08:35:37;;;;;;;;;;;0.80;99.90;;;;;;5063778;28;19912;-78
2023/01/22 08:38:03;;;;;;;;;;;0.80;99.90;;;;;;5067952;28;19909;-78
2023/01/22 08:40:28;;;;;;;;;;;0.80;99.90;;;;;;5067713;28;19916;-76
2023/01/22 08:42:54;;;;;;;;;;;0.80;99.90;;;;;;5070403;28;19916;-78
2023/01/22 08:45:20;;;;;;;;;;;0.80;99.90;;;;;;5066204;28;19962;-76
2023/01/22 08:47:45;;;;;;;;;;;0.90;99.90;;;;;;5068916;28;19913;-75
2023/01/22 08:50:11;;;;;;;;;;;0.90;99.90;;;;;;5068093;28;20227;-77
2023/01/22 08:52:37;;;;;;;;;;;0.90;99.90;;;;;;5063645;28;19920;-78
2023/01/22 08:55:05;;;;;;;;;;;1.00;99.90;;;;;;5071812;28;19966;-78
2023/01/22 08:57:31;;;;;;;;;;;0.90;99.90;;;;;;5059208;28;19992;-79
2023/01/22 08:59:56;;;;;;;;;;;0.90;99.90;;;;;;5066702;28;20007;-79
2023/01/22 09:02:22;;;;;;;;;;;1.00;99.90;;;;;;5069903;28;20215;-79
2023/01/22 09:04:47;;;;;;;;;;;1.00;99.90;;;;;;5069566;28;19981;-79
2023/01/22 09:07:13;;;;;;;;;;;1.00;99.90;;;;;;5069795;28;20704;-79
2023/01/22 09:09:38;;;;;;;;;;;1.00;99.90;;;;;;5064933;28;20373;-79
2023/01/22 09:12:04;;;;;;;;;;;1.00;99.90;;;;;;5072788;28;19958;-77
2023/01/22 09:14:29;;;;;;;;;;;1.10;99.90;;;;;;5068250;28;19913;-80
2023/01/22 09:16:55;;;;;;;;;;;1.10;99.90;;;;;;5068990;28;19956;-78
2023/01/22 09:19:21;;;;;;;;;;;1.10;99.90;;;;;;5065686;28;19908;-80
2023/01/22 09:21:46;;;;;;;;;;;1.10;99.90;;;;;;5060116;28;19974;-75
2023/01/22 09:24:12;;;;;;;;;;;1.10;99.90;;;;;;5070051;28;19958;-73
2023/01/22 09:26:37;;;;;;;;;;;1.10;99.90;;;;;;5069113;28;19920;-79
2023/01/22 09:29:04;;;;;;;;;;;1.10;99.90;;;;;;5062956;28;19919;-79
2023/01/22 09:31:36;;;;;;;;;;;1.20;99.90;;;;;;5063046;28;19908;-79
2023/01/22 09:34:02;;;;;;;;;;;1.20;99.90;;;;;;5060919;28;19927;-72
2023/01/22 09:36:28;;;;;;;;;;;1.30;99.90;;;;;;5048346;28;19912;-73
2023/01/22 09:38:54;;;;;;;;;;;1.30;99.90;;;;;;5068057;28;20322;-76
2023/01/22 09:41:19;;;;;;;;;;;1.30;99.90;;;;;;5066217;28;19916;-76
2023/01/22 09:44:00;;;;;;;;;;;1.30;99.90;;;;;;5066648;28;20214;-76
2023/01/22 09:46:41;;;;;;;;;;;1.40;99.90;;;;;;5064636;28;20293;-78
2023/01/22 09:49:13;;;;;;;;;;;1.40;99.90;;;;;;5052740;28;19936;-78
2023/01/22 09:51:38;;;;;;;;;;;1.40;99.90;;;;;;5059946;28;19993;-72
2023/01/22 09:54:07;;;;;;;;;;;1.40;99.90;;;;;;5062599;28;19908;-77
2023/01/22 09:56:41;;;;;;;;;;;1.40;99.90;;;;;;5070316;28;19908;-78
2023/01/22 09:59:12;;;;;;;;;;;1.30;99.90;;;;;;5069642;28;19955;-78
2023/01/22 10:01:37;;;;;;;;;;;1.30;99.90;;;;;;5066239;28;19916;-78
2023/01/22 10:04:06;;;;;;;;;;;1.30;99.90;;;;;;5066972;28;20070;-77
2023/01/22 10:06:32;;;;;;;;;;;1.30;99.90;;;;;;5062611;28;19995;-79
2023/01/22 10:09:06;;;;;;;;;;;1.30;99.90;;;;;;5071865;28;19995;-79
2023/01/22 10:11:32;;;;;;;;;;;1.40;99.90;;;;;;5072221;28;19919;-72
2023/01/22 10:13:59;;;;;;;;;;;1.40;99.90;;;;;;5068127;28;20007;-79
2023/01/22 10:16:25;;;;;;;;;;;1.40;99.90;;;;;;5071850;28;19915;-73
2023/01/22 10:18:53;;;;;;;;;;;1.50;99.90;;;;;;5073197;28;19904;-78
2023/01/22 10:21:18;;;;;;;;;;;1.50;99.90;;;;;;5073133;28;20027;-78
2023/01/22 10:23:44;;;;;;;;;;;1.60;99.90;;;;;;5066805;28;19991;-78
2023/01/22 10:26:13;;;;;;;;;;;1.60;99.90;;;;;;5064395;28;19908;-79
2023/01/22 10:28:42;;;;;;;;;;;1.60;99.90;;;;;;5074550;28;19920;-74
2023/01/22 10:31:18;;;;;;;;;;;1.60;99.90;;;;;;5073342;28;20053;-72
2023/01/22 10:33:44;;;;;;;;;;;1.70;99.90;;;;;;5068216;28;20224;-74
2023/01/22 10:36:12;;;;;;;;;;;1.70;99.90;;;;;;5072578;28;19915;-77
2023/01/22 10:38:38;;;;;;;;;;;1.70;99.90;;;;;;5064103;28;19916;-78
2023/01/22 10:41:03;;;;;;;;;;;1.70;99.90;;;;;;5065261;28;19920;-77
2023/01/22 10:43:37;;;;;;;;;;;1.80;99.90;;;;;;5072625;28;19928;-79
2023/01/22 10:46:26;;;;;;;;;;;1.80;99.90;;;;;;5070922;28;20229;-78
2023/01/22 10:49:02;;;;;;;;;;;1.80;99.90;;;;;;5066070;28;19966;-77
2023/01/22 10:51:34;;;;;;;;;;;1.80;99.90;;;;;;5056889;28;19908;-77
2023/01/22 10:53:59;;;;;;;;;;;1.80;99.90;;;;;;5068021;28;19936;-78
2023/01/22 10:56:30;;;;;;;;;;;1.80;99.90;;;;;;5061375;28;19993;-72
2023/01/22 10:58:56;;;;;;;;;;;1.80;99.90;;;;;;5068931;28;19915;-77
2023/01/22 11:01:48;;;;;;;;;;;1.80;99.90;;;;;;5072118;28;19928;-77
2023/01/22 11:04:18;;;;;;;;;;;1.80;99.90;;;;;;5064236;28;19917;-73
2023/01/22 11:06:46;;;;;;;;;;;1.80;99.90;;;;;;5072240;28;19913;-73
2023/01/22 11:09:26;;;;;;;;;;;1.80;99.90;;;;;;5069366;28;19999;-78
2023/01/22 11:12:10;;;;;;;;;;;1.80;99.90;;;;;;5073098;28;19908;-77
2023/01/22 11:14:37;;;;;;;;;;;1.80;99.90;;;;;;5070120;28;19958;-75
2023/01/22 11:17:12;;;;;;;;;;;1.70;99.90;;;;;;5070134;28;19968;-77
2023/01/22 11:19:39;;;;;;;;;;;1.80;99.90;;;;;;5071235;28;19914;-77
2023/01/22 11:22:13;;;;;;;;;;;1.70;99.90;;;;;;5068565;28;19916;-77
2023/01/22 11:24:43;;;;;;;;;;;1.70;99.90;;;;;;5070573;28;19916;-76
2023/01/22 11:27:14;;;;;;;;;;;1.80;99.90;;;;;;5063080;28;19911;-77
2023/01/22 11:29:40;;;;;;;;;;;1.80;99.90;;;;;;5068882;28;19998;-77
2023/01/22 11:32:24;;;;;;;;;;;1.90;99.90;;;;;;5072229;28;20041;-76
2023/01/22 11:34:49;;;;;;;;;;;1.90;99.90;;;;;;5061474;28;20209;-72
2023/01/22 11:37:21;;;;;;;;;;;1.90;99.90;;;;;;5069896;28;19904;-72
2023/01/22 11:39:46;;;;;;;;;;;2.00;99.90;;;;;;5074271;28;20302;-76
2023/01/22 11:42:12;;;;;;;;;;;2.00;99.90;;;;;;5074178;28;19913;-78
2023/01/22 11:44:40;;;;;;;;;;;2.00;99.90;;;;;;5067630;28;19913;-72
2023/01/22 11:47:32;;;;;;;;;;;2.00;99.90;;;;;;5069811;28;19928;-71
2023/01/22 11:50:03;;;;;;;;;;;2.00;99.90;;;;;;5067024;28;19909;-72
2023/01/22 11:52:34;;;;;;;;;;;2.00;99.90;;;;;;5061254;28;19912;-76
2023/01/22 11:55:02;;;;;;;;;;;1.90;99.90;;;;;;5064741;28;20223;-77
2023/01/22 11:57:37;;;;;;;;;;;1.90;99.90;;;;;;5051165;28;19923;-72
2023/01/22 12:00:21;;;;;;;;;;;2.00;99.90;;;;;;5064689;28;19908;-77
2023/01/22 12:03:06;;;;;;;;;;;2.10;99.90;;;;;;5069793;28;19912;-71
2023/01/22 12:05:50;;;;;;;;;;;2.10;99.90;;;;;;5061336;28;20196;-72
2023/01/22 12:08:31;;;;;;;;;;;2.10;99.90;;;;;;5069047;28;19920;-71
2023/01/22 12:11:15;;;;;;;;;;;2.20;99.90;;;;;;5071806;28;19912;-71
2023/01/22 12:13:46;;;;;;;;;;;2.10;99.90;;;;;;5063555;28;19912;-72
2023/01/22 12:16:16;;;;;;;;;;;2.10;99.90;;;;;;5065519;28;19912;-72
2023/01/22 12:19:07;;;;;;;;;;;2.00;99.90;;;;;;5065447;28;19916;-77
2023/01/22 12:21:41;;;;;;;;;;;2.00;99.90;;;;;;5072081;28;19974;-72
2023/01/22 12:24:06;;;;;;;;;;;2.00;99.90;;;;;;5070692;28;19912;-78
2023/01/22 12:26:34;;;;;;;;;;;2.00;99.90;;;;;;5059039;28;20306;-71
2023/01/22 12:29:18;;;;;;;;;;;2.00;99.90;;;;;;5071834;28;19954;-72
2023/01/22 12:31:47;;;;;;;;;;;2.00;99.90;;;;;;5066779;28;19917;-71
2023/01/22 12:34:15;;;;;;;;;;;2.00;99.90;;;;;;5068011;28;19978;-71
2023/01/22 12:36:42;;;;;;;;;;;2.00;99.90;;;;;;5067362;28;19908;-77
2023/01/22 12:39:26;;;;;;;;;;;2.00;99.90;;;;;;5067253;28;19912;-77
2023/01/22 12:41:52;;;;;;;;;;;1.90;99.90;;;;;;5066119;28;19912;-72
2023/01/22 12:44:17;;;;;;;;;;;1.90;99.90;;;;;;5066280;28;19915;-72
2023/01/22 12:46:48;;;;;;;;;;;1.90;99.90;;;;;;5068687;28;19999;-78
2023/01/22 12:49:15;;;;;;;;;;;2.00;99.90;;;;;;5069375;28;19978;-72
2023/01/22 12:51:48;;;;;;;;;;;2.00;99.90;;;;;;5063711;28;19912;-77
2023/01/22 12:54:19;;;;;;;;;;;2.00;99.90;;;;;;5068382;28;19954;-73
2023/01/22 12:56:45;;;;;;;;;;;2.00;99.90;;;;;;5071353;28;19953;-71
2023/01/22 12:59:31;;;;;;;;;;;2.00;99.90;;;;;;5063657;28;20006;-77
2023/01/22 13:01:57;;;;;;;;;;;2.00;99.90;;;;;;5065885;28;20330;-71
2023/01/22 13:04:27;;;;;;;;;;;2.00;99.90;;;;;;5053556;28;20007;-78
2023/01/22 13:07:01;;;;;;;;;;;2.10;99.90;;;;;;5064663;28;19909;-72
2023/01/22 13:09:33;;;;;;;;;;;2.10;99.90;;;;;;5065682;28;20204;-72
2023/01/22 13:12:17;;;;;;;;;;;2.10;99.90;;;;;;5070126;28;19919;-77
2023/01/22 13:14:43;;;;;;;;;;;2.00;99.90;;;;;;5056519;28;19909;-72
2023/01/22 13:17:17;;;;;;;;;;;2.00;99.90;;;;;;5069180;28;19927;-71
2023/01/22 13:19:46;;;;;;;;;;;2.00;99.90;;;;;;5064514;28;20358;-72
2023/01/22 13:22:17;;;;;;;;;;;2.00;99.90;;;;;;5067177;28;19917;-77
2023/01/22 13:24:53;;;;;;;;;;;2.00;99.90;;;;;;5070040;28;19909;-72
2023/01/22 13:27:23;;;;;;;;;;;2.00;99.90;;;;;;5070500;28;20012;-72
2023/01/22 13:29:49;;;;;;;;;;;1.90;99.90;;;;;;5066520;28;19944;-78
2023/01/22 13:32:16;;;;;;;;;;;1.90;99.90;;;;;;5073046;28;20307;-72
2023/01/22 13:34:42;;;;;;;;;;;1.90;99.90;;;;;;5067675;28;19908;-71
2023/01/22 13:37:37;;;;;;;;;;;1.90;99.90;;;;;;5071835;28;19912;-79
2023/01/22 13:40:22;;;;;;;;;;;1.80;99.90;;;;;;5010017;28;19910;-72
2023/01/22 13:42:48;;;;;;;;;;;1.90;99.90;;;;;;5005034;28;20257;-72
2023/01/22 13:45:24;;;;;;;;;;;2.00;99.90;;;;;;5016522;28;19940;-76
2023/01/22 13:48:01;;;;;;;;;;;1.90;99.90;;;;;;5018700;28;19965;-74
2023/01/22 13:50:28;;;;;;;;;;;2.00;99.90;;;;;;4999269;28;20369;-77
2023/01/22 13:52:55;;;;;;;;;;;2.00;99.90;;;;;;5020433;28;19917;-72
2023/01/22 13:55:22;;;;;;;;;;;2.00;99.90;;;;;;5024760;28;19916;-78
2023/01/22 13:57:52;;;;;;;;;;;1.90;99.90;;;;;;5013663;28;19916;-79
2023/01/22 14:00:21;;;;;;;;;;;1.80;99.90;;;;;;5013039;28;20025;-72
2023/01/22 14:02:47;;;;;;;;;;;1.80;99.90;;;;;;5012288;28;19913;-72
2023/01/22 14:05:16;;;;;;;;;;;1.80;99.90;;;;;;5014363;28;19917;-71
2023/01/22 14:07:41;;;;;;;;;;;1.80;99.90;;;;;;5015577;28;19952;-79
2023/01/22 14:10:15;;;;;;;;;;;1.80;99.90;;;;;;5015253;28;19945;-79
2023/01/22 14:12:41;;;;;;;;;;;1.80;99.90;;;;;;5014295;28;19917;-72
2023/01/22 14:15:17;;;;;;;;;;;1.80;99.90;;;;;;5008200;28;19940;-79
2023/01/22 14:17:43;;;;;;;;;;;1.80;99.90;;;;;;5052776;28;19908;-71
2023/01/22 14:20:09;;;;;;;;;;;1.80;99.90;;;;;;5063197;28;19919;-72
2023/01/22 14:22:34;;;;;;;;;;;1.80;99.90;;;;;;5061534;28;19913;-72
2023/01/22 14:25:00;;;;;;;;;;;1.80;99.90;;;;;;5074316;28;20215;-80
2023/01/22 14:27:27;;;;;;;;;;;1.80;99.90;;;;;;5076135;28;19908;-72
2023/01/22 14:29:53;;;;;;;;;;;1.80;99.90;;;;;;5070153;28;20330;-80
2023/01/22 14:32:19;;;;;;;;;;;1.80;99.90;;;;;;5055979;28;20659;-79
2023/01/22 14:34:44;;;;;;;;;;;1.80;99.90;;;;;;5070272;28;20076;-73
2023/01/22 14:37:16;;;;;;;;;;;1.80;99.90;;;;;;5073704;28;19908;-79
2023/01/22 14:39:42;;;;;;;;;;;1.90;99.90;;;;;;5056080;28;19979;-72
2023/01/22 14:42:07;;;;;;;;;;;1.90;99.90;;;;;;5068892;28;19912;-71